Archival Weather

Chicago O'Hare International

Chicago, Illinois (KORD)

Report from: Wednesday, March 27, 2024 1:51 PM CDT
Current time: Tuesday, May 21, 2024 12:25 PM CDT

Current weather – Weather history – Daily summaries
Weather forecast

Temperature3.9°C (39.0°F)
Wind chill-0.1°C (31.8°F)
Dew point-5.0°C (23.0°F)
Winds 10 kts (5.1 m/s, 11.5 mph) Vrb
Wind gusts 19 kts (9.8 m/s, 21.9 mph)
Winds variableWinds variable from Southwest (230°) to West-Northwest (290°)
Visibility10 mi. (16.1 km)
Clouds Scattered clouds 3,600 ft. (1,097 m)
Altimeter30.06 in.Hg (1018 mB)
Relative humidity52 %
Density altitude-1,455 ft. (-444 m)
Sea-level pressure101.9 kPa (1019 mB, 30.08 in.Hg)
Remarks Automated weather observing station with precipitation discriminator
Flight conditions Visual Meteorological Conditions
Raw dataKORD 271851Z 26010G19KT 230V290 10SM SCT036 04/M05 A3006 RMK AO2 SLP185 T00391050
An error has occurred. This application may no longer respond until reloaded. Reload 🗙